sensor_id;sensor_type;location;lat;lon;timestamp;P1;durP1;ratioP1;P2;durP2;ratioP2
67902;SDS011;54708;43.612;1.568;2023-08-17T00:02:12;6.00;;;5.50;;
67902;SDS011;54708;43.612;1.568;2023-08-17T00:04:38;5.53;;;4.90;;
67902;SDS011;54708;43.612;1.568;2023-08-17T00:07:04;5.15;;;4.70;;
67902;SDS011;54708;43.612;1.568;2023-08-17T00:09:30;7.07;;;5.22;;
67902;SDS011;54708;43.612;1.568;2023-08-17T00:11:55;5.32;;;4.65;;
67902;SDS011;54708;43.612;1.568;2023-08-17T00:14:21;7.85;;;5.18;;
67902;SDS011;54708;43.612;1.568;2023-08-17T00:16:46;6.15;;;5.40;;
67902;SDS011;54708;43.612;1.568;2023-08-17T00:19:12;6.15;;;4.97;;
67902;SDS011;54708;43.612;1.568;2023-08-17T00:21:37;5.68;;;5.07;;
67902;SDS011;54708;43.612;1.568;2023-08-17T00:24:03;5.10;;;4.70;;
67902;SDS011;54708;43.612;1.568;2023-08-17T00:26:29;5.75;;;5.15;;
67902;SDS011;54708;43.612;1.568;2023-08-17T00:28:54;5.10;;;4.70;;
67902;SDS011;54708;43.612;1.568;2023-08-17T00:31:20;5.03;;;4.63;;
67902;SDS011;54708;43.612;1.568;2023-08-17T00:33:45;5.10;;;4.60;;
67902;SDS011;54708;43.612;1.568;2023-08-17T00:36:10;5.47;;;4.97;;
67902;SDS011;54708;43.612;1.568;2023-08-17T00:38:36;5.63;;;4.82;;
67902;SDS011;54708;43.612;1.568;2023-08-17T00:41:01;6.40;;;5.07;;
67902;SDS011;54708;43.612;1.568;2023-08-17T00:43:27;6.57;;;5.97;;
67902;SDS011;54708;43.612;1.568;2023-08-17T00:45:52;4.90;;;4.47;;
67902;SDS011;54708;43.612;1.568;2023-08-17T00:48:18;4.85;;;4.45;;
67902;SDS011;54708;43.612;1.568;2023-08-17T00:50:43;5.40;;;4.82;;
67902;SDS011;54708;43.612;1.568;2023-08-17T00:53:10;4.80;;;4.40;;
67902;SDS011;54708;43.612;1.568;2023-08-17T00:55:38;6.13;;;4.85;;
67902;SDS011;54708;43.612;1.568;2023-08-17T00:58:04;5.30;;;4.70;;
67902;SDS011;54708;43.612;1.568;2023-08-17T01:00:29;5.40;;;4.70;;
67902;SDS011;54708;43.612;1.568;2023-08-17T01:02:56;5.88;;;5.00;;
67902;SDS011;54708;43.612;1.568;2023-08-17T01:05:23;8.02;;;5.50;;
67902;SDS011;54708;43.612;1.568;2023-08-17T01:07:48;7.18;;;4.75;;
67902;SDS011;54708;43.612;1.568;2023-08-17T01:10:13;6.60;;;4.85;;
67902;SDS011;54708;43.612;1.568;2023-08-17T01:12:52;5.78;;;4.82;;
67902;SDS011;54708;43.612;1.568;2023-08-17T01:15:37;5.03;;;4.60;;
67902;SDS011;54708;43.612;1.568;2023-08-17T01:18:13;4.78;;;4.28;;
67902;SDS011;54708;43.612;1.568;2023-08-17T01:20:43;5.63;;;5.03;;
67902;SDS011;54708;43.612;1.568;2023-08-17T01:23:08;6.07;;;5.47;;
67902;SDS011;54708;43.612;1.568;2023-08-17T01:25:34;5.70;;;5.18;;
67902;SDS011;54708;43.612;1.568;2023-08-17T01:28:04;5.28;;;4.68;;
67902;SDS011;54708;43.612;1.568;2023-08-17T01:30:39;5.20;;;4.70;;
67902;SDS011;54708;43.612;1.568;2023-08-17T01:33:06;6.07;;;5.30;;
67902;SDS011;54708;43.612;1.568;2023-08-17T01:35:44;8.88;;;5.10;;
67902;SDS011;54708;43.612;1.568;2023-08-17T01:38:12;4.85;;;4.35;;
67902;SDS011;54708;43.612;1.568;2023-08-17T01:40:40;4.72;;;4.32;;
67902;SDS011;54708;43.612;1.568;2023-08-17T01:43:06;6.13;;;4.93;;
67902;SDS011;54708;43.612;1.568;2023-08-17T01:45:32;5.82;;;4.45;;
67902;SDS011;54708;43.612;1.568;2023-08-17T01:47:57;5.70;;;4.70;;
67902;SDS011;54708;43.612;1.568;2023-08-17T01:50:23;5.13;;;4.63;;
67902;SDS011;54708;43.612;1.568;2023-08-17T01:52:48;6.65;;;6.00;;
67902;SDS011;54708;43.612;1.568;2023-08-17T01:55:16;6.40;;;5.22;;
67902;SDS011;54708;43.612;1.568;2023-08-17T01:57:41;5.97;;;5.20;;
67902;SDS011;54708;43.612;1.568;2023-08-17T02:00:06;7.55;;;5.72;;
67902;SDS011;54708;43.612;1.568;2023-08-17T02:02:35;5.75;;;5.18;;
67902;SDS011;54708;43.612;1.568;2023-08-17T02:05:01;6.45;;;5.38;;
67902;SDS011;54708;43.612;1.568;2023-08-17T02:07:26;5.60;;;4.97;;
67902;SDS011;54708;43.612;1.568;2023-08-17T02:09:51;6.75;;;5.00;;
67902;SDS011;54708;43.612;1.568;2023-08-17T02:12:17;5.63;;;5.00;;
67902;SDS011;54708;43.612;1.568;2023-08-17T02:14:42;7.30;;;5.63;;
67902;SDS011;54708;43.612;1.568;2023-08-17T02:17:07;5.85;;;4.65;;
67902;SDS011;54708;43.612;1.568;2023-08-17T02:19:33;7.45;;;6.03;;
67902;SDS011;54708;43.612;1.568;2023-08-17T02:21:58;5.45;;;4.95;;
67902;SDS011;54708;43.612;1.568;2023-08-17T02:24:24;6.00;;;5.10;;
67902;SDS011;54708;43.612;1.568;2023-08-17T02:26:50;6.57;;;4.80;;
67902;SDS011;54708;43.612;1.568;2023-08-17T02:29:15;5.90;;;5.40;;
67902;SDS011;54708;43.612;1.568;2023-08-17T02:31:41;7.05;;;5.53;;
67902;SDS011;54708;43.612;1.568;2023-08-17T02:34:06;7.40;;;5.72;;
67902;SDS011;54708;43.612;1.568;2023-08-17T02:36:33;5.25;;;4.80;;
67902;SDS011;54708;43.612;1.568;2023-08-17T02:38:58;5.80;;;4.82;;
67902;SDS011;54708;43.612;1.568;2023-08-17T02:41:23;8.15;;;5.50;;
67902;SDS011;54708;43.612;1.568;2023-08-17T02:43:49;5.90;;;5.28;;
67902;SDS011;54708;43.612;1.568;2023-08-17T02:46:14;5.35;;;4.88;;
67902;SDS011;54708;43.612;1.568;2023-08-17T02:48:40;12.15;;;5.75;;
67902;SDS011;54708;43.612;1.568;2023-08-17T02:51:05;7.32;;;5.25;;
67902;SDS011;54708;43.612;1.568;2023-08-17T02:53:31;6.53;;;5.90;;
67902;SDS011;54708;43.612;1.568;2023-08-17T02:55:56;6.07;;;5.28;;
67902;SDS011;54708;43.612;1.568;2023-08-17T02:58:21;5.80;;;5.30;;
67902;SDS011;54708;43.612;1.568;2023-08-17T03:00:47;5.93;;;5.00;;
67902;SDS011;54708;43.612;1.568;2023-08-17T03:03:12;5.90;;;5.40;;
67902;SDS011;54708;43.612;1.568;2023-08-17T03:05:37;11.20;;;9.43;;
67902;SDS011;54708;43.612;1.568;2023-08-17T03:08:03;11.25;;;8.80;;
67902;SDS011;54708;43.612;1.568;2023-08-17T03:10:29;7.68;;;6.93;;
67902;SDS011;54708;43.612;1.568;2023-08-17T03:12:56;7.68;;;6.43;;
67902;SDS011;54708;43.612;1.568;2023-08-17T03:15:21;5.45;;;5.03;;
67902;SDS011;54708;43.612;1.568;2023-08-17T03:17:46;7.05;;;5.80;;
67902;SDS011;54708;43.612;1.568;2023-08-17T03:20:12;6.45;;;5.03;;
67902;SDS011;54708;43.612;1.568;2023-08-17T03:22:37;6.85;;;5.60;;
67902;SDS011;54708;43.612;1.568;2023-08-17T03:25:02;6.45;;;5.82;;
67902;SDS011;54708;43.612;1.568;2023-08-17T03:27:28;6.03;;;5.43;;
67902;SDS011;54708;43.612;1.568;2023-08-17T03:29:54;5.78;;;5.28;;
67902;SDS011;54708;43.612;1.568;2023-08-17T03:32:19;7.70;;;6.38;;
67902;SDS011;54708;43.612;1.568;2023-08-17T03:34:44;8.63;;;5.60;;
67902;SDS011;54708;43.612;1.568;2023-08-17T03:37:10;6.35;;;5.75;;
67902;SDS011;54708;43.612;1.568;2023-08-17T03:39:35;8.30;;;6.35;;
67902;SDS011;54708;43.612;1.568;2023-08-17T03:42:01;7.15;;;6.05;;
67902;SDS011;54708;43.612;1.568;2023-08-17T03:44:26;9.48;;;5.57;;
67902;SDS011;54708;43.612;1.568;2023-08-17T03:46:51;6.95;;;5.95;;
67902;SDS011;54708;43.612;1.568;2023-08-17T03:49:17;6.35;;;5.35;;
67902;SDS011;54708;43.612;1.568;2023-08-17T03:51:42;8.30;;;5.60;;
67902;SDS011;54708;43.612;1.568;2023-08-17T03:54:07;6.75;;;5.80;;
67902;SDS011;54708;43.612;1.568;2023-08-17T03:56:33;6.72;;;5.95;;
67902;SDS011;54708;43.612;1.568;2023-08-17T03:58:58;5.75;;;5.18;;
67902;SDS011;54708;43.612;1.568;2023-08-17T04:01:24;6.60;;;5.95;;
67902;SDS011;54708;43.612;1.568;2023-08-17T04:03:49;5.75;;;5.28;;
67902;SDS011;54708;43.612;1.568;2023-08-17T04:06:15;7.60;;;5.97;;
67902;SDS011;54708;43.612;1.568;2023-08-17T04:08:40;9.20;;;5.80;;
67902;SDS011;54708;43.612;1.568;2023-08-17T04:11:06;8.68;;;6.55;;
67902;SDS011;54708;43.612;1.568;2023-08-17T04:13:31;6.95;;;5.80;;
67902;SDS011;54708;43.612;1.568;2023-08-17T04:15:57;6.20;;;5.63;;
67902;SDS011;54708;43.612;1.568;2023-08-17T04:18:22;8.02;;;5.95;;
67902;SDS011;54708;43.612;1.568;2023-08-17T04:20:48;7.28;;;6.57;;
67902;SDS011;54708;43.612;1.568;2023-08-17T04:23:14;6.75;;;5.93;;
67902;SDS011;54708;43.612;1.568;2023-08-17T04:25:39;5.82;;;5.22;;
67902;SDS011;54708;43.612;1.568;2023-08-17T04:28:05;6.47;;;5.88;;
67902;SDS011;54708;43.612;1.568;2023-08-17T04:30:30;6.60;;;6.00;;
67902;SDS011;54708;43.612;1.568;2023-08-17T04:32:56;6.85;;;6.20;;
67902;SDS011;54708;43.612;1.568;2023-08-17T04:35:21;6.70;;;6.03;;
67902;SDS011;54708;43.612;1.568;2023-08-17T04:37:47;6.55;;;5.95;;
67902;SDS011;54708;43.612;1.568;2023-08-17T04:40:13;6.82;;;5.85;;
67902;SDS011;54708;43.612;1.568;2023-08-17T04:42:38;8.15;;;5.78;;
67902;SDS011;54708;43.612;1.568;2023-08-17T04:45:04;6.82;;;6.10;;
67902;SDS011;54708;43.612;1.568;2023-08-17T04:47:30;5.97;;;5.43;;
67902;SDS011;54708;43.612;1.568;2023-08-17T04:49:55;6.85;;;6.15;;
67902;SDS011;54708;43.612;1.568;2023-08-17T04:52:20;9.15;;;6.43;;
67902;SDS011;54708;43.612;1.568;2023-08-17T04:54:46;6.43;;;5.93;;
67902;SDS011;54708;43.612;1.568;2023-08-17T04:57:11;5.72;;;5.25;;
67902;SDS011;54708;43.612;1.568;2023-08-17T04:59:37;7.82;;;5.45;;
67902;SDS011;54708;43.612;1.568;2023-08-17T05:02:02;6.57;;;5.68;;
67902;SDS011;54708;43.612;1.568;2023-08-17T05:04:29;7.10;;;5.53;;
67902;SDS011;54708;43.612;1.568;2023-08-17T05:06:55;8.23;;;6.30;;
67902;SDS011;54708;43.612;1.568;2023-08-17T05:09:21;8.18;;;6.18;;
67902;SDS011;54708;43.612;1.568;2023-08-17T05:11:46;9.75;;;6.32;;
67902;SDS011;54708;43.612;1.568;2023-08-17T05:14:11;9.80;;;5.68;;
67902;SDS011;54708;43.612;1.568;2023-08-17T05:16:37;6.28;;;5.30;;
67902;SDS011;54708;43.612;1.568;2023-08-17T05:19:02;6.20;;;5.53;;
67902;SDS011;54708;43.612;1.568;2023-08-17T05:21:28;8.02;;;6.05;;
67902;SDS011;54708;43.612;1.568;2023-08-17T05:23:54;6.97;;;5.72;;
67902;SDS011;54708;43.612;1.568;2023-08-17T05:26:20;6.50;;;5.90;;
67902;SDS011;54708;43.612;1.568;2023-08-17T05:28:45;5.95;;;5.35;;
67902;SDS011;54708;43.612;1.568;2023-08-17T05:31:11;7.30;;;5.65;;
67902;SDS011;54708;43.612;1.568;2023-08-17T05:33:36;6.88;;;5.60;;
67902;SDS011;54708;43.612;1.568;2023-08-17T05:36:02;6.20;;;5.60;;
67902;SDS011;54708;43.612;1.568;2023-08-17T05:38:28;6.72;;;5.63;;
67902;SDS011;54708;43.612;1.568;2023-08-17T05:40:57;6.80;;;5.93;;
67902;SDS011;54708;43.612;1.568;2023-08-17T05:43:23;6.95;;;5.30;;
67902;SDS011;54708;43.612;1.568;2023-08-17T05:45:48;6.50;;;5.82;;
67902;SDS011;54708;43.612;1.568;2023-08-17T05:48:14;9.60;;;5.78;;
67902;SDS011;54708;43.612;1.568;2023-08-17T05:50:42;7.28;;;5.60;;
67902;SDS011;54708;43.612;1.568;2023-08-17T05:53:08;7.60;;;5.95;;
67902;SDS011;54708;43.612;1.568;2023-08-17T05:55:34;5.88;;;5.20;;
67902;SDS011;54708;43.612;1.568;2023-08-17T05:57:59;15.52;;;6.15;;
67902;SDS011;54708;43.612;1.568;2023-08-17T06:00:25;6.20;;;5.22;;
67902;SDS011;54708;43.612;1.568;2023-08-17T06:02:50;6.50;;;5.90;;
67902;SDS011;54708;43.612;1.568;2023-08-17T06:05:16;6.28;;;5.50;;
67902;SDS011;54708;43.612;1.568;2023-08-17T06:07:43;6.68;;;5.78;;
67902;SDS011;54708;43.612;1.568;2023-08-17T06:10:09;5.65;;;5.15;;
67902;SDS011;54708;43.612;1.568;2023-08-17T06:12:35;6.60;;;5.63;;
67902;SDS011;54708;43.612;1.568;2023-08-17T06:15:01;7.53;;;5.65;;
67902;SDS011;54708;43.612;1.568;2023-08-17T06:17:27;7.50;;;5.80;;
67902;SDS011;54708;43.612;1.568;2023-08-17T06:19:53;6.88;;;5.25;;
67902;SDS011;54708;43.612;1.568;2023-08-17T06:22:18;6.78;;;5.55;;
67902;SDS011;54708;43.612;1.568;2023-08-17T06:24:43;5.53;;;5.05;;
67902;SDS011;54708;43.612;1.568;2023-08-17T06:27:09;5.22;;;4.78;;
67902;SDS011;54708;43.612;1.568;2023-08-17T06:29:34;6.70;;;5.20;;
67902;SDS011;54708;43.612;1.568;2023-08-17T06:32:00;5.90;;;5.00;;
67902;SDS011;54708;43.612;1.568;2023-08-17T06:34:25;6.40;;;5.70;;
67902;SDS011;54708;43.612;1.568;2023-08-17T06:37:01;8.52;;;4.90;;
67902;SDS011;54708;43.612;1.568;2023-08-17T06:39:27;6.35;;;5.75;;
67902;SDS011;54708;43.612;1.568;2023-08-17T06:41:53;6.10;;;5.53;;
67902;SDS011;54708;43.612;1.568;2023-08-17T06:44:19;7.03;;;5.60;;
67902;SDS011;54708;43.612;1.568;2023-08-17T06:46:44;6.55;;;5.38;;
67902;SDS011;54708;43.612;1.568;2023-08-17T06:49:10;6.25;;;5.68;;
67902;SDS011;54708;43.612;1.568;2023-08-17T06:51:36;8.40;;;5.38;;
67902;SDS011;54708;43.612;1.568;2023-08-17T06:54:01;9.32;;;6.15;;
67902;SDS011;54708;43.612;1.568;2023-08-17T06:56:27;5.38;;;4.88;;
67902;SDS011;54708;43.612;1.568;2023-08-17T06:58:52;6.95;;;5.90;;
67902;SDS011;54708;43.612;1.568;2023-08-17T07:01:18;5.45;;;4.97;;
67902;SDS011;54708;43.612;1.568;2023-08-17T07:03:43;5.47;;;5.00;;
67902;SDS011;54708;43.612;1.568;2023-08-17T07:06:09;6.45;;;5.32;;
67902;SDS011;54708;43.612;1.568;2023-08-17T07:08:35;5.50;;;5.03;;
67902;SDS011;54708;43.612;1.568;2023-08-17T07:11:00;8.25;;;5.35;;
67902;SDS011;54708;43.612;1.568;2023-08-17T07:13:25;10.60;;;5.45;;
67902;SDS011;54708;43.612;1.568;2023-08-17T07:15:51;7.03;;;5.80;;
67902;SDS011;54708;43.612;1.568;2023-08-17T07:18:16;7.85;;;6.13;;
67902;SDS011;54708;43.612;1.568;2023-08-17T07:20:42;6.72;;;5.38;;
67902;SDS011;54708;43.612;1.568;2023-08-17T07:23:07;6.95;;;5.55;;
67902;SDS011;54708;43.612;1.568;2023-08-17T07:25:32;6.43;;;5.80;;
67902;SDS011;54708;43.612;1.568;2023-08-17T07:27:58;8.68;;;5.25;;
67902;SDS011;54708;43.612;1.568;2023-08-17T07:30:23;7.88;;;6.07;;
67902;SDS011;54708;43.612;1.568;2023-08-17T07:32:49;6.95;;;5.47;;
67902;SDS011;54708;43.612;1.568;2023-08-17T07:35:14;5.80;;;5.18;;
67902;SDS011;54708;43.612;1.568;2023-08-17T07:37:40;12.90;;;5.22;;
67902;SDS011;54708;43.612;1.568;2023-08-17T07:40:05;9.05;;;5.25;;
67902;SDS011;54708;43.612;1.568;2023-08-17T07:42:32;5.80;;;5.13;;
67902;SDS011;54708;43.612;1.568;2023-08-17T07:44:58;6.65;;;5.20;;
67902;SDS011;54708;43.612;1.568;2023-08-17T07:47:23;6.03;;;5.25;;
67902;SDS011;54708;43.612;1.568;2023-08-17T07:49:48;5.25;;;4.75;;
67902;SDS011;54708;43.612;1.568;2023-08-17T07:52:14;7.50;;;5.22;;
67902;SDS011;54708;43.612;1.568;2023-08-17T07:54:40;6.57;;;5.15;;
67902;SDS011;54708;43.612;1.568;2023-08-17T07:57:05;5.15;;;4.75;;
67902;SDS011;54708;43.612;1.568;2023-08-17T07:59:31;5.72;;;5.13;;
67902;SDS011;54708;43.612;1.568;2023-08-17T08:01:56;5.22;;;4.78;;
67902;SDS011;54708;43.612;1.568;2023-08-17T08:04:22;6.05;;;4.22;;
67902;SDS011;54708;43.612;1.568;2023-08-17T08:06:47;6.70;;;4.78;;
67902;SDS011;54708;43.612;1.568;2023-08-17T08:09:12;4.90;;;4.43;;
67902;SDS011;54708;43.612;1.568;2023-08-17T08:11:38;5.38;;;4.43;;
67902;SDS011;54708;43.612;1.568;2023-08-17T08:14:03;7.00;;;4.68;;
67902;SDS011;54708;43.612;1.568;2023-08-17T08:16:29;5.30;;;4.28;;
67902;SDS011;54708;43.612;1.568;2023-08-17T08:18:57;6.47;;;4.00;;
67902;SDS011;54708;43.612;1.568;2023-08-17T08:21:23;4.53;;;4.15;;
67902;SDS011;54708;43.612;1.568;2023-08-17T08:23:48;10.38;;;6.05;;
67902;SDS011;54708;43.612;1.568;2023-08-17T08:26:14;13.88;;;5.00;;
67902;SDS011;54708;43.612;1.568;2023-08-17T08:28:39;4.65;;;4.15;;
67902;SDS011;54708;43.612;1.568;2023-08-17T08:31:05;6.90;;;4.88;;
67902;SDS011;54708;43.612;1.568;2023-08-17T08:33:31;4.05;;;3.72;;
67902;SDS011;54708;43.612;1.568;2023-08-17T08:35:56;6.00;;;5.10;;
67902;SDS011;54708;43.612;1.568;2023-08-17T08:38:22;7.65;;;4.07;;
67902;SDS011;54708;43.612;1.568;2023-08-17T08:40:47;3.85;;;3.47;;
67902;SDS011;54708;43.612;1.568;2023-08-17T08:43:16;4.25;;;3.95;;
67902;SDS011;54708;43.612;1.568;2023-08-17T08:45:42;4.50;;;4.10;;
67902;SDS011;54708;43.612;1.568;2023-08-17T08:48:09;4.30;;;3.22;;
67902;SDS011;54708;43.612;1.568;2023-08-17T08:50:39;7.97;;;4.28;;
67902;SDS011;54708;43.612;1.568;2023-08-17T08:53:07;4.32;;;3.90;;
67902;SDS011;54708;43.612;1.568;2023-08-17T08:55:47;7.85;;;3.88;;
67902;SDS011;54708;43.612;1.568;2023-08-17T08:58:17;4.57;;;3.97;;
67902;SDS011;54708;43.612;1.568;2023-08-17T09:00:45;3.53;;;3.22;;
67902;SDS011;54708;43.612;1.568;2023-08-17T09:03:11;6.15;;;3.65;;
67902;SDS011;54708;43.612;1.568;2023-08-17T09:05:37;5.57;;;3.72;;
67902;SDS011;54708;43.612;1.568;2023-08-17T09:08:03;4.70;;;3.33;;
67902;SDS011;54708;43.612;1.568;2023-08-17T09:10:29;5.03;;;3.70;;
67902;SDS011;54708;43.612;1.568;2023-08-17T09:12:54;5.57;;;3.20;;
67902;SDS011;54708;43.612;1.568;2023-08-17T09:15:19;4.25;;;3.40;;
67902;SDS011;54708;43.612;1.568;2023-08-17T09:17:46;7.43;;;3.40;;
67902;SDS011;54708;43.612;1.568;2023-08-17T09:20:17;5.45;;;3.17;;
67902;SDS011;54708;43.612;1.568;2023-08-17T09:23:03;4.55;;;3.22;;
67902;SDS011;54708;43.612;1.568;2023-08-17T09:25:29;5.07;;;3.63;;
67902;SDS011;54708;43.612;1.568;2023-08-17T09:27:55;5.13;;;3.00;;
67902;SDS011;54708;43.612;1.568;2023-08-17T09:30:22;3.05;;;2.85;;
67902;SDS011;54708;43.612;1.568;2023-08-17T09:32:47;6.53;;;4.00;;
67902;SDS011;54708;43.612;1.568;2023-08-17T09:35:14;5.00;;;3.58;;
67902;SDS011;54708;43.612;1.568;2023-08-17T09:37:39;6.07;;;4.13;;
67902;SDS011;54708;43.612;1.568;2023-08-17T09:40:05;3.90;;;3.45;;
67902;SDS011;54708;43.612;1.568;2023-08-17T09:42:34;5.25;;;3.88;;
67902;SDS011;54708;43.612;1.568;2023-08-17T09:44:59;7.97;;;3.90;;
67902;SDS011;54708;43.612;1.568;2023-08-17T09:47:26;6.43;;;3.08;;
67902;SDS011;54708;43.612;1.568;2023-08-17T09:49:52;4.25;;;3.70;;
67902;SDS011;54708;43.612;1.568;2023-08-17T09:52:18;4.05;;;3.65;;
67902;SDS011;54708;43.612;1.568;2023-08-17T09:54:45;4.80;;;3.92;;
67902;SDS011;54708;43.612;1.568;2023-08-17T09:57:12;7.43;;;4.43;;
67902;SDS011;54708;43.612;1.568;2023-08-17T09:59:37;5.60;;;4.18;;
67902;SDS011;54708;43.612;1.568;2023-08-17T10:02:03;4.93;;;3.42;;
67902;SDS011;54708;43.612;1.568;2023-08-17T10:04:28;5.40;;;3.97;;
67902;SDS011;54708;43.612;1.568;2023-08-17T10:07:00;4.28;;;3.75;;
67902;SDS011;54708;43.612;1.568;2023-08-17T10:09:28;3.88;;;3.10;;
67902;SDS011;54708;43.612;1.568;2023-08-17T10:11:57;5.30;;;3.33;;
67902;SDS011;54708;43.612;1.568;2023-08-17T10:14:28;5.05;;;4.00;;
67902;SDS011;54708;43.612;1.568;2023-08-17T10:17:03;4.05;;;3.75;;
67902;SDS011;54708;43.612;1.568;2023-08-17T10:19:43;8.05;;;4.57;;
67902;SDS011;54708;43.612;1.568;2023-08-17T10:22:26;6.85;;;3.90;;
67902;SDS011;54708;43.612;1.568;2023-08-17T10:24:55;11.98;;;3.65;;
67902;SDS011;54708;43.612;1.568;2023-08-17T10:27:21;4.05;;;3.55;;
67902;SDS011;54708;43.612;1.568;2023-08-17T10:29:47;7.03;;;3.70;;
67902;SDS011;54708;43.612;1.568;2023-08-17T10:32:13;8.07;;;3.53;;
67902;SDS011;54708;43.612;1.568;2023-08-17T10:34:38;3.75;;;3.45;;
67902;SDS011;54708;43.612;1.568;2023-08-17T10:37:04;4.60;;;3.10;;
67902;SDS011;54708;43.612;1.568;2023-08-17T10:39:30;5.22;;;3.28;;
67902;SDS011;54708;43.612;1.568;2023-08-17T10:41:56;4.95;;;3.65;;
67902;SDS011;54708;43.612;1.568;2023-08-17T10:47:29;3.45;;;3.15;;
67902;SDS011;54708;43.612;1.568;2023-08-17T10:52:36;3.20;;;2.85;;
67902;SDS011;54708;43.612;1.568;2023-08-17T10:55:08;3.25;;;2.92;;
67902;SDS011;54708;43.612;1.568;2023-08-17T11:00:07;4.85;;;3.22;;
67902;SDS011;54708;43.612;1.568;2023-08-17T11:02:40;5.93;;;3.33;;
67902;SDS011;54708;43.612;1.568;2023-08-17T11:05:07;4.93;;;2.92;;
67902;SDS011;54708;43.612;1.568;2023-08-17T11:07:43;3.05;;;2.83;;
67902;SDS011;54708;43.612;1.568;2023-08-17T11:12:43;4.68;;;3.05;;
67902;SDS011;54708;43.612;1.568;2023-08-17T11:15:09;4.25;;;3.65;;
67902;SDS011;54708;43.612;1.568;2023-08-17T11:17:34;3.10;;;2.80;;
67902;SDS011;54708;43.612;1.568;2023-08-17T11:20:00;3.05;;;2.63;;
67902;SDS011;54708;43.612;1.568;2023-08-17T11:22:25;3.60;;;3.30;;
67902;SDS011;54708;43.612;1.568;2023-08-17T11:24:51;3.72;;;3.03;;
67902;SDS011;54708;43.612;1.568;2023-08-17T11:27:16;3.80;;;3.45;;
67902;SDS011;54708;43.612;1.568;2023-08-17T11:29:41;5.05;;;3.08;;
67902;SDS011;54708;43.612;1.568;2023-08-17T11:32:08;5.15;;;3.00;;
67902;SDS011;54708;43.612;1.568;2023-08-17T11:34:35;3.30;;;3.00;;
67902;SDS011;54708;43.612;1.568;2023-08-17T11:37:01;4.00;;;3.40;;
67902;SDS011;54708;43.612;1.568;2023-08-17T11:39:26;3.63;;;3.00;;
67902;SDS011;54708;43.612;1.568;2023-08-17T11:41:51;3.90;;;2.72;;
67902;SDS011;54708;43.612;1.568;2023-08-17T11:44:18;6.32;;;3.33;;
67902;SDS011;54708;43.612;1.568;2023-08-17T11:46:46;3.75;;;3.25;;
67902;SDS011;54708;43.612;1.568;2023-08-17T11:49:12;5.10;;;3.58;;
67902;SDS011;54708;43.612;1.568;2023-08-17T11:51:37;3.90;;;2.67;;
67902;SDS011;54708;43.612;1.568;2023-08-17T11:54:04;6.45;;;2.78;;
67902;SDS011;54708;43.612;1.568;2023-08-17T11:56:32;3.03;;;2.80;;
67902;SDS011;54708;43.612;1.568;2023-08-17T11:58:58;6.45;;;3.28;;
67902;SDS011;54708;43.612;1.568;2023-08-17T12:01:23;3.70;;;3.35;;
67902;SDS011;54708;43.612;1.568;2023-08-17T12:03:49;4.57;;;2.90;;
67902;SDS011;54708;43.612;1.568;2023-08-17T12:06:15;5.32;;;2.88;;
67902;SDS011;54708;43.612;1.568;2023-08-17T12:08:45;3.75;;;2.30;;
67902;SDS011;54708;43.612;1.568;2023-08-17T12:11:11;3.40;;;3.10;;
67902;SDS011;54708;43.612;1.568;2023-08-17T12:13:36;4.25;;;2.85;;
67902;SDS011;54708;43.612;1.568;2023-08-17T12:16:02;4.28;;;2.67;;
67902;SDS011;54708;43.612;1.568;2023-08-17T12:18:28;4.50;;;2.85;;
67902;SDS011;54708;43.612;1.568;2023-08-17T12:20:54;4.97;;;2.65;;
67902;SDS011;54708;43.612;1.568;2023-08-17T12:23:19;5.13;;;2.80;;
67902;SDS011;54708;43.612;1.568;2023-08-17T12:25:45;5.10;;;3.20;;
67902;SDS011;54708;43.612;1.568;2023-08-17T12:28:13;4.53;;;2.97;;
67902;SDS011;54708;43.612;1.568;2023-08-17T12:30:39;4.70;;;2.97;;
67902;SDS011;54708;43.612;1.568;2023-08-17T12:33:04;3.55;;;2.58;;
67902;SDS011;54708;43.612;1.568;2023-08-17T12:35:30;7.28;;;4.97;;
67902;SDS011;54708;43.612;1.568;2023-08-17T12:37:56;3.95;;;3.10;;
67902;SDS011;54708;43.612;1.568;2023-08-17T12:40:22;4.78;;;2.67;;
67902;SDS011;54708;43.612;1.568;2023-08-17T12:42:48;6.57;;;3.10;;
67902;SDS011;54708;43.612;1.568;2023-08-17T12:45:13;4.00;;;3.05;;
67902;SDS011;54708;43.612;1.568;2023-08-17T12:47:39;3.70;;;2.97;;
67902;SDS011;54708;43.612;1.568;2023-08-17T12:50:05;3.80;;;2.80;;
67902;SDS011;54708;43.612;1.568;2023-08-17T12:52:30;5.75;;;2.65;;
67902;SDS011;54708;43.612;1.568;2023-08-17T12:54:56;6.03;;;2.80;;
67902;SDS011;54708;43.612;1.568;2023-08-17T12:57:22;3.50;;;3.20;;
67902;SDS011;54708;43.612;1.568;2023-08-17T12:59:47;3.92;;;2.78;;
67902;SDS011;54708;43.612;1.568;2023-08-17T13:02:12;4.45;;;3.03;;
67902;SDS011;54708;43.612;1.568;2023-08-17T13:04:38;9.30;;;3.20;;
67902;SDS011;54708;43.612;1.568;2023-08-17T13:07:04;3.03;;;2.72;;
67902;SDS011;54708;43.612;1.568;2023-08-17T13:09:29;4.90;;;2.83;;
67902;SDS011;54708;43.612;1.568;2023-08-17T13:11:54;2.83;;;2.58;;
67902;SDS011;54708;43.612;1.568;2023-08-17T13:14:20;4.70;;;2.90;;
67902;SDS011;54708;43.612;1.568;2023-08-17T13:16:47;6.63;;;3.53;;
67902;SDS011;54708;43.612;1.568;2023-08-17T13:19:13;6.75;;;3.00;;
67902;SDS011;54708;43.612;1.568;2023-08-17T13:21:38;5.45;;;3.13;;
67902;SDS011;54708;43.612;1.568;2023-08-17T13:24:04;4.30;;;2.83;;
67902;SDS011;54708;43.612;1.568;2023-08-17T13:26:29;3.72;;;2.15;;
67902;SDS011;54708;43.612;1.568;2023-08-17T13:28:55;3.58;;;2.75;;
67902;SDS011;54708;43.612;1.568;2023-08-17T13:31:21;4.20;;;2.72;;
67902;SDS011;54708;43.612;1.568;2023-08-17T13:33:46;6.88;;;2.90;;
67902;SDS011;54708;43.612;1.568;2023-08-17T13:36:12;7.30;;;2.95;;
67902;SDS011;54708;43.612;1.568;2023-08-17T13:38:37;7.20;;;3.03;;
67902;SDS011;54708;43.612;1.568;2023-08-17T13:41:03;5.97;;;2.53;;
67902;SDS011;54708;43.612;1.568;2023-08-17T13:43:29;3.42;;;2.55;;
67902;SDS011;54708;43.612;1.568;2023-08-17T13:45:54;3.70;;;2.78;;
67902;SDS011;54708;43.612;1.568;2023-08-17T13:48:19;3.47;;;2.90;;
67902;SDS011;54708;43.612;1.568;2023-08-17T13:50:45;4.80;;;2.40;;
67902;SDS011;54708;43.612;1.568;2023-08-17T13:53:10;3.58;;;2.60;;
67902;SDS011;54708;43.612;1.568;2023-08-17T13:55:36;4.15;;;2.60;;
67902;SDS011;54708;43.612;1.568;2023-08-17T13:58:01;3.25;;;2.30;;
67902;SDS011;54708;43.612;1.568;2023-08-17T14:00:27;3.55;;;2.92;;
67902;SDS011;54708;43.612;1.568;2023-08-17T14:02:53;4.40;;;2.50;;
67902;SDS011;54708;43.612;1.568;2023-08-17T14:05:18;2.85;;;2.40;;
67902;SDS011;54708;43.612;1.568;2023-08-17T14:07:44;4.15;;;2.60;;
67902;SDS011;54708;43.612;1.568;2023-08-17T14:10:09;2.63;;;2.33;;
67902;SDS011;54708;43.612;1.568;2023-08-17T14:12:35;3.95;;;2.35;;
67902;SDS011;54708;43.612;1.568;2023-08-17T14:15:00;6.60;;;3.00;;
67902;SDS011;54708;43.612;1.568;2023-08-17T14:17:25;2.83;;;2.50;;
67902;SDS011;54708;43.612;1.568;2023-08-17T14:19:51;4.60;;;2.65;;
67902;SDS011;54708;43.612;1.568;2023-08-17T14:22:16;3.88;;;2.97;;
67902;SDS011;54708;43.612;1.568;2023-08-17T14:24:42;4.35;;;2.38;;
67902;SDS011;54708;43.612;1.568;2023-08-17T14:27:07;2.40;;;2.20;;
67902;SDS011;54708;43.612;1.568;2023-08-17T14:29:32;8.13;;;2.55;;
67902;SDS011;54708;43.612;1.568;2023-08-17T14:31:58;5.22;;;2.47;;
67902;SDS011;54708;43.612;1.568;2023-08-17T14:34:23;5.38;;;2.75;;
67902;SDS011;54708;43.612;1.568;2023-08-17T14:36:49;2.42;;;2.15;;
67902;SDS011;54708;43.612;1.568;2023-08-17T14:39:14;5.88;;;2.92;;
67902;SDS011;54708;43.612;1.568;2023-08-17T14:41:39;3.15;;;2.38;;
67902;SDS011;54708;43.612;1.568;2023-08-17T14:44:05;5.05;;;2.85;;
67902;SDS011;54708;43.612;1.568;2023-08-17T14:46:30;6.28;;;2.85;;
67902;SDS011;54708;43.612;1.568;2023-08-17T14:48:56;7.00;;;3.53;;
67902;SDS011;54708;43.612;1.568;2023-08-17T14:51:23;2.83;;;2.58;;
67902;SDS011;54708;43.612;1.568;2023-08-17T14:53:49;5.55;;;3.08;;